createdAt,value
2023-02-25T00:02:15.284Z,2.70
2023-02-25T00:04:43.554Z,2.70
2023-02-25T00:07:11.946Z,2.70
2023-02-25T00:09:40.155Z,2.70
2023-02-25T00:12:08.623Z,2.70
2023-02-25T00:14:37.266Z,2.70
2023-02-25T00:17:07.157Z,2.60
2023-02-25T00:19:35.440Z,2.60
2023-02-25T00:22:03.639Z,2.70
2023-02-25T00:24:31.935Z,2.70
2023-02-25T00:27:00.494Z,2.60
2023-02-25T00:29:29.288Z,2.50
2023-02-25T00:31:57.772Z,2.50
2023-02-25T00:34:28.675Z,2.60
2023-02-25T00:36:57.014Z,2.50
2023-02-25T00:39:42.491Z,2.60
2023-02-25T00:42:13.273Z,2.60
2023-02-25T00:44:44.789Z,2.60
2023-02-25T00:47:14.262Z,2.50
2023-02-25T00:49:43.888Z,2.50
2023-02-25T00:52:12.734Z,2.50
2023-02-25T00:54:40.902Z,2.60
2023-02-25T00:57:09.580Z,2.60
2023-02-25T00:59:37.725Z,2.50
2023-02-25T01:02:05.995Z,2.60
2023-02-25T01:04:34.725Z,2.50
2023-02-25T01:07:04.496Z,2.60
2023-02-25T01:09:33.529Z,2.50
2023-02-25T01:12:01.989Z,2.60
2023-02-25T01:14:30.233Z,2.50
2023-02-25T01:17:02.060Z,2.50
2023-02-25T01:19:30.817Z,2.50
2023-02-25T01:22:00.827Z,2.60
2023-02-25T01:24:32.888Z,2.60
2023-02-25T01:27:02.887Z,2.60
2023-02-25T01:29:33.198Z,2.50
2023-02-25T01:32:03.087Z,2.50
2023-02-25T01:34:31.889Z,2.60
2023-02-25T01:37:00.695Z,2.60
2023-02-25T01:39:32.241Z,2.50
2023-02-25T01:42:03.161Z,2.50
2023-02-25T01:44:34.334Z,2.50
2023-02-25T01:47:03.030Z,2.50
2023-02-25T01:49:35.300Z,2.50
2023-02-25T01:52:07.697Z,2.50
2023-02-25T01:54:38.038Z,2.60
2023-02-25T01:57:10.198Z,2.60
2023-02-25T01:59:40.219Z,2.60
2023-02-25T02:02:09.872Z,2.60
2023-02-25T02:04:39.575Z,2.60
2023-02-25T02:07:08.542Z,2.50
2023-02-25T02:09:40.339Z,2.60
2023-02-25T02:12:09.166Z,2.60
2023-02-25T02:14:41.324Z,2.60
2023-02-25T02:17:21.078Z,2.50
2023-02-25T02:20:11.300Z,2.60
2023-02-25T02:22:47.754Z,2.50
2023-02-25T02:25:51.552Z,2.60
2023-02-25T02:28:57.555Z,2.50
2023-02-25T02:31:47.646Z,2.50
2023-02-25T02:34:36.080Z,2.50
2023-02-25T02:37:14.022Z,2.50
2023-02-25T02:39:53.690Z,2.50
2023-02-25T02:42:33.079Z,2.60
2023-02-25T02:45:07.308Z,2.50
2023-02-25T02:47:40.129Z,2.60
2023-02-25T02:50:13.283Z,2.60
2023-02-25T02:52:44.293Z,2.50
2023-02-25T02:55:22.608Z,2.50
2023-02-25T02:57:55.411Z,2.50
2023-02-25T03:00:28.650Z,2.50
2023-02-25T03:03:04.147Z,2.60
2023-02-25T03:05:36.061Z,2.60
2023-02-25T03:08:11.945Z,2.60
2023-02-25T03:10:40.906Z,2.60
2023-02-25T03:13:09.658Z,2.50
2023-02-25T03:15:41.287Z,2.60
2023-02-25T03:18:19.182Z,2.60
2023-02-25T03:20:50.542Z,2.50
2023-02-25T03:23:22.194Z,2.50
2023-02-25T03:25:53.975Z,2.50
2023-02-25T03:28:27.419Z,2.50
2023-02-25T03:31:03.026Z,2.50
2023-02-25T03:33:37.220Z,2.50
2023-02-25T03:36:10.864Z,2.50
2023-02-25T03:38:47.553Z,2.50
2023-02-25T03:41:18.697Z,2.50
2023-02-25T03:43:50.498Z,2.40
2023-02-25T03:46:21.914Z,2.40
2023-02-25T03:48:54.444Z,2.30
2023-02-25T03:51:28.421Z,2.40
2023-02-25T03:53:57.033Z,2.50
2023-02-25T03:56:25.772Z,2.40
2023-02-25T03:58:54.431Z,2.30
2023-02-25T04:01:29.072Z,2.20
2023-02-25T04:03:58.778Z,2.20
2023-02-25T04:06:27.507Z,2.20
2023-02-25T04:08:55.828Z,2.20
2023-02-25T04:11:24.150Z,2.30
2023-02-25T04:13:52.402Z,2.30
2023-02-25T04:16:20.870Z,2.30
2023-02-25T04:18:49.372Z,2.30
2023-02-25T04:21:29.746Z,2.30
2023-02-25T04:23:58.818Z,2.20
2023-02-25T04:26:27.342Z,2.20
2023-02-25T04:28:57.948Z,2.10
2023-02-25T04:31:26.430Z,2.10
2023-02-25T04:33:57.988Z,2.10
2023-02-25T04:36:30.446Z,2.10
2023-02-25T04:39:00.440Z,2.10
2023-02-25T04:41:31.633Z,2.10
2023-02-25T04:44:00.381Z,2.10
2023-02-25T04:46:28.602Z,2.10
2023-02-25T04:48:57.770Z,2.10
2023-02-25T04:51:27.567Z,2.10
2023-02-25T04:53:56.113Z,2.10
2023-02-25T04:56:24.800Z,2.10
2023-02-25T04:58:53.990Z,2.10
2023-02-25T05:01:22.849Z,2.20
2023-02-25T05:03:56.825Z,2.10
2023-02-25T05:06:26.171Z,2.00
2023-02-25T05:08:57.629Z,2.00
2023-02-25T05:11:28.367Z,2.10
2023-02-25T05:13:57.365Z,2.10
2023-02-25T05:16:27.244Z,2.00
2023-02-25T05:18:56.040Z,2.00
2023-02-25T05:21:26.680Z,2.10
2023-02-25T05:23:56.759Z,2.10
2023-02-25T05:26:26.636Z,2.10
2023-02-25T05:28:56.695Z,2.10
2023-02-25T05:31:26.272Z,2.20
2023-02-25T05:33:54.815Z,2.10
2023-02-25T05:36:27.791Z,2.10
2023-02-25T05:39:02.799Z,2.10
2023-02-25T05:41:32.068Z,2.10
2023-02-25T05:44:00.752Z,2.20
2023-02-25T05:46:28.999Z,2.10
2023-02-25T05:48:58.492Z,2.10
2023-02-25T05:51:29.010Z,2.10
2023-02-25T05:53:58.598Z,2.00
2023-02-25T05:56:30.184Z,2.00
2023-02-25T05:59:00.603Z,1.80
2023-02-25T06:01:29.627Z,1.80
2023-02-25T06:04:01.221Z,1.80
2023-02-25T06:06:31.655Z,1.80
2023-02-25T06:09:01.701Z,1.80
2023-02-25T06:11:31.457Z,1.80
2023-02-25T06:14:00.698Z,1.80
2023-02-25T06:16:32.021Z,1.80
2023-02-25T06:19:02.214Z,1.80
2023-02-25T06:21:31.482Z,1.80
2023-02-25T06:24:03.666Z,1.80
2023-02-25T06:26:33.216Z,1.90
2023-02-25T06:29:01.476Z,1.90
2023-02-25T06:31:29.770Z,1.90
2023-02-25T06:33:57.976Z,1.90
2023-02-25T06:36:26.738Z,2.00
2023-02-25T06:38:55.409Z,2.00
2023-02-25T06:41:25.217Z,1.90
2023-02-25T06:43:53.579Z,1.80
2023-02-25T06:46:24.888Z,1.80
2023-02-25T06:48:53.859Z,1.80
2023-02-25T06:51:25.842Z,1.90
2023-02-25T06:53:54.126Z,2.00
2023-02-25T06:56:24.317Z,2.10
2023-02-25T06:58:53.639Z,2.00
2023-02-25T07:01:22.501Z,1.90
2023-02-25T07:03:50.927Z,1.90
2023-02-25T07:06:20.201Z,2.00
2023-02-25T07:08:48.609Z,2.10
2023-02-25T07:11:30.221Z,2.20
2023-02-25T07:13:58.840Z,2.10
2023-02-25T07:16:27.370Z,2.10
2023-02-25T07:18:55.650Z,2.10
2023-02-25T07:21:24.177Z,2.20
2023-02-25T07:23:52.566Z,2.20
2023-02-25T07:26:20.896Z,2.30
2023-02-25T07:28:50.898Z,2.20
2023-02-25T07:31:22.085Z,2.20
2023-02-25T07:33:51.356Z,2.20
2023-02-25T07:36:22.323Z,2.10
2023-02-25T07:38:50.691Z,1.80
2023-02-25T07:41:21.240Z,1.60
2023-02-25T07:43:51.065Z,1.80
2023-02-25T07:46:19.340Z,1.90
2023-02-25T07:48:47.606Z,2.00
2023-02-25T07:51:18.912Z,2.00
2023-02-25T07:53:48.067Z,2.10
2023-02-25T07:56:17.336Z,2.20
2023-02-25T07:58:45.973Z,2.20
2023-02-25T08:01:23.588Z,2.30
2023-02-25T08:03:52.394Z,2.40
2023-02-25T08:06:21.214Z,2.40
2023-02-25T08:08:50.796Z,2.50
2023-02-25T08:11:21.244Z,2.50
2023-02-25T08:13:49.629Z,2.50
2023-02-25T08:16:21.150Z,2.60
2023-02-25T08:18:49.822Z,2.70
2023-02-25T08:21:21.908Z,2.70
2023-02-25T08:23:50.515Z,2.60
2023-02-25T08:26:22.475Z,2.70
2023-02-25T08:28:51.856Z,2.60
2023-02-25T08:31:28.820Z,2.70
2023-02-25T08:33:59.377Z,2.90
2023-02-25T08:36:29.522Z,3.00
2023-02-25T08:38:59.574Z,3.00
2023-02-25T08:41:29.907Z,3.00
2023-02-25T08:44:00.650Z,2.90
2023-02-25T08:46:32.396Z,2.90
2023-02-25T08:49:01.160Z,2.90
2023-02-25T08:51:35.164Z,2.70
2023-02-25T08:54:05.146Z,2.70
2023-02-25T08:56:35.493Z,2.70
2023-02-25T08:59:04.671Z,2.50
2023-02-25T09:01:44.974Z,2.40
2023-02-25T09:04:14.903Z,2.40
2023-02-25T09:06:44.019Z,2.50
2023-02-25T09:09:13.401Z,2.50
2023-02-25T09:11:41.822Z,2.50
2023-02-25T09:14:10.163Z,2.50
2023-02-25T09:16:40.108Z,2.60
2023-02-25T09:19:08.571Z,2.50
2023-02-25T09:21:40.444Z,2.50
2023-02-25T09:24:09.708Z,2.60
2023-02-25T09:26:39.524Z,2.60
2023-02-25T09:29:09.225Z,2.60
2023-02-25T09:31:40.219Z,2.50
2023-02-25T09:34:15.327Z,2.50
2023-02-25T09:36:43.853Z,2.50
2023-02-25T09:39:12.438Z,2.60
2023-02-25T09:41:48.230Z,2.80
2023-02-25T09:44:19.343Z,3.00
2023-02-25T09:46:52.964Z,3.30
2023-02-25T09:49:28.614Z,3.60
2023-02-25T09:52:12.079Z,3.90
2023-02-25T09:54:47.106Z,4.30
2023-02-25T09:57:20.126Z,5.00
2023-02-25T09:59:49.979Z,5.30
2023-02-25T10:02:28.750Z,5.10
2023-02-25T10:05:11.510Z,5.00
2023-02-25T10:07:51.771Z,4.70
2023-02-25T10:10:25.417Z,4.60
2023-02-25T10:13:05.190Z,4.30
2023-02-25T10:15:52.176Z,4.30
2023-02-25T10:18:46.194Z,4.20
2023-02-25T10:21:25.262Z,4.10
2023-02-25T10:24:10.534Z,4.10
2023-02-25T10:26:44.495Z,4.10
2023-02-25T10:29:18.226Z,4.00
2023-02-25T10:31:47.636Z,4.00
2023-02-25T10:34:26.082Z,4.00
2023-02-25T10:36:57.797Z,4.20
2023-02-25T10:39:28.198Z,4.20
2023-02-25T10:41:56.454Z,4.20
2023-02-25T10:44:25.453Z,4.40
2023-02-25T10:46:59.063Z,4.20
2023-02-25T10:49:30.820Z,4.20
2023-02-25T10:52:03.545Z,4.30
2023-02-25T10:54:34.022Z,4.30
2023-02-25T10:57:08.516Z,4.10
2023-02-25T10:59:39.417Z,4.00
2023-02-25T11:02:23.269Z,3.90
2023-02-25T11:04:53.680Z,3.50
2023-02-25T11:07:42.986Z,3.00
2023-02-25T11:10:17.950Z,2.60
2023-02-25T11:12:48.891Z,2.20
2023-02-25T11:15:43.754Z,2.10
2023-02-25T11:18:21.650Z,2.40
2023-02-25T11:20:54.662Z,3.00
2023-02-25T11:23:37.741Z,3.20
2023-02-25T11:26:08.204Z,3.30
2023-02-25T11:28:42.106Z,3.30
2023-02-25T11:31:16.969Z,3.30
2023-02-25T11:33:53.984Z,3.30
2023-02-25T11:36:25.793Z,3.70
2023-02-25T11:39:07.762Z,4.10
2023-02-25T11:41:36.005Z,4.30
2023-02-25T11:44:22.968Z,4.50
2023-02-25T11:47:00.127Z,4.80
2023-02-25T11:50:05.913Z,4.90
2023-02-25T11:52:42.709Z,4.80
2023-02-25T11:55:33.147Z,4.90
2023-02-25T11:58:11.008Z,4.80
2023-02-25T12:00:50.749Z,4.60
2023-02-25T12:03:48.896Z,4.40
2023-02-25T12:06:33.868Z,4.40
2023-02-25T12:09:41.250Z,4.10
2023-02-25T12:12:30.130Z,3.80
2023-02-25T12:15:23.627Z,3.20
2023-02-25T12:18:42.220Z,3.10
2023-02-25T12:21:57.154Z,3.00
2023-02-25T12:24:46.906Z,3.20
2023-02-25T12:27:48.947Z,3.10
2023-02-25T12:30:44.840Z,2.90
2023-02-25T12:33:38.838Z,2.60
2023-02-25T12:36:21.786Z,2.70
2023-02-25T12:39:20.481Z,2.60
2023-02-25T12:41:54.791Z,2.60
2023-02-25T12:44:49.258Z,2.60
2023-02-25T12:47:31.844Z,2.60
2023-02-25T12:50:32.795Z,2.60
2023-02-25T12:53:25.226Z,2.60
2023-02-25T12:56:14.716Z,2.60
2023-02-25T12:59:10.511Z,2.60
2023-02-25T13:01:57.531Z,2.50
2023-02-25T13:04:52.646Z,2.70
2023-02-25T13:07:38.823Z,2.80
2023-02-25T13:10:38.129Z,2.90
2023-02-25T13:13:54.079Z,2.80
2023-02-25T13:16:34.997Z,2.90
2023-02-25T13:19:23.236Z,2.90
2023-02-25T13:22:06.168Z,2.80
2023-02-25T13:24:47.705Z,2.80
2023-02-25T13:27:33.673Z,2.70
2023-02-25T13:30:27.780Z,2.60
2023-02-25T13:33:06.263Z,2.60
2023-02-25T13:35:46.010Z,2.80
2023-02-25T13:38:29.146Z,2.90
2023-02-25T13:41:12.814Z,2.90
2023-02-25T13:44:11.462Z,2.90
2023-02-25T13:46:57.776Z,3.00
2023-02-25T13:50:03.792Z,3.20
2023-02-25T13:52:46.340Z,3.20
2023-02-25T13:55:36.001Z,3.30
2023-02-25T13:58:46.766Z,3.20
2023-02-25T14:01:30.195Z,3.10
2023-02-25T14:04:38.399Z,3.00
2023-02-25T14:07:37.112Z,3.10
2023-02-25T14:10:26.985Z,3.20
2023-02-25T14:13:22.239Z,3.20
2023-02-25T14:16:02.167Z,3.20
2023-02-25T14:18:54.146Z,3.00
2023-02-25T14:21:45.339Z,2.90
2023-02-25T14:24:20.536Z,3.00
2023-02-25T14:27:00.245Z,3.10
2023-02-25T14:29:36.427Z,3.20
2023-02-25T14:32:23.945Z,3.10
2023-02-25T14:35:11.416Z,3.10
2023-02-25T14:37:48.370Z,3.00
2023-02-25T14:40:34.392Z,2.90
2023-02-25T14:43:29.742Z,2.80
2023-02-25T14:46:04.731Z,2.80
2023-02-25T14:48:42.397Z,2.70
2023-02-25T14:51:50.042Z,2.50
2023-02-25T14:54:59.982Z,2.30
2023-02-25T14:58:08.891Z,2.40
2023-02-25T15:01:03.426Z,2.40
2023-02-25T15:03:51.641Z,2.30
2023-02-25T15:06:36.708Z,2.30
2023-02-25T15:09:38.595Z,2.40
2023-02-25T15:12:30.750Z,2.60
2023-02-25T15:15:35.498Z,2.90
2023-02-25T15:18:28.799Z,2.90
2023-02-25T15:20:58.079Z,2.70
2023-02-25T15:23:50.537Z,2.60
2023-02-25T15:26:24.774Z,2.50
2023-02-25T15:28:53.986Z,2.40
2023-02-25T15:31:34.263Z,2.30
2023-02-25T15:34:37.957Z,2.10
2023-02-25T15:37:36.037Z,2.10
2023-02-25T15:40:37.803Z,2.10
2023-02-25T15:43:39.113Z,2.20
2023-02-25T15:46:40.107Z,2.00
2023-02-25T15:49:23.166Z,2.00
2023-02-25T15:51:53.708Z,2.00
2023-02-25T15:54:48.693Z,1.90
2023-02-25T15:57:41.887Z,2.00
2023-02-25T16:00:54.797Z,2.00
2023-02-25T16:03:43.508Z,2.00
2023-02-25T16:06:16.196Z,1.80
2023-02-25T16:08:51.767Z,1.80
2023-02-25T16:11:30.024Z,1.80
2023-02-25T16:14:00.389Z,1.80
2023-02-25T16:16:31.013Z,1.90
2023-02-25T16:19:01.088Z,1.90
2023-02-25T16:21:39.159Z,1.90
2023-02-25T16:24:11.203Z,1.80
2023-02-25T16:26:50.003Z,1.70
2023-02-25T16:29:40.525Z,1.70
2023-02-25T16:32:15.012Z,1.60
2023-02-25T16:34:49.034Z,1.70
2023-02-25T16:37:27.763Z,1.70
2023-02-25T16:39:56.282Z,1.70
2023-02-25T16:42:24.624Z,1.70
2023-02-25T16:45:00.752Z,1.70
2023-02-25T16:47:31.823Z,1.60
2023-02-25T16:50:03.046Z,1.50
2023-02-25T16:52:34.828Z,1.40
2023-02-25T16:55:07.029Z,1.30
2023-02-25T16:57:36.481Z,1.20
2023-02-25T17:00:16.225Z,1.10
2023-02-25T17:02:47.349Z,1.20
2023-02-25T17:05:26.702Z,1.10
2023-02-25T17:08:02.183Z,1.20
2023-02-25T17:10:33.543Z,1.10
2023-02-25T17:13:04.653Z,0.90
2023-02-25T17:15:36.042Z,1.00
2023-02-25T17:18:10.141Z,1.00
2023-02-25T17:20:38.977Z,1.00
2023-02-25T17:23:15.098Z,0.90
2023-02-25T17:25:47.265Z,0.90
2023-02-25T17:28:23.246Z,0.80
2023-02-25T17:30:53.381Z,0.80
2023-02-25T17:33:26.340Z,0.90
2023-02-25T17:35:58.368Z,0.90
2023-02-25T17:38:29.170Z,0.90
2023-02-25T17:40:59.318Z,0.90
2023-02-25T17:43:35.837Z,0.90
2023-02-25T17:46:15.699Z,0.90
2023-02-25T17:48:51.159Z,0.80
2023-02-25T17:51:20.250Z,0.90
2023-02-25T17:53:51.870Z,0.70
2023-02-25T17:56:26.002Z,0.70
2023-02-25T17:59:02.422Z,0.60
2023-02-25T18:01:32.180Z,0.50
2023-02-25T18:04:06.359Z,0.50
2023-02-25T18:06:41.043Z,0.30
2023-02-25T18:09:31.610Z,0.30
2023-02-25T18:12:02.657Z,0.20
2023-02-25T18:14:36.783Z,0.30
2023-02-25T18:17:20.167Z,0.40
2023-02-25T18:19:49.278Z,0.40
2023-02-25T18:22:40.643Z,0.50
2023-02-25T18:25:38.923Z,0.50
2023-02-25T18:28:13.280Z,0.70
2023-02-25T18:30:42.172Z,0.70
2023-02-25T18:33:11.640Z,0.70
2023-02-25T18:35:43.134Z,0.40
2023-02-25T18:38:16.645Z,0.40
2023-02-25T18:40:46.865Z,0.30
2023-02-25T18:43:17.956Z,0.10
2023-02-25T18:45:46.790Z,0.10
2023-02-25T18:48:15.664Z,-0.20
2023-02-25T18:50:44.975Z,-0.30
2023-02-25T18:53:16.151Z,-0.40
2023-02-25T18:55:44.405Z,-0.10
2023-02-25T18:58:17.443Z,0.10
2023-02-25T19:00:48.991Z,0.20
2023-02-25T19:03:23.289Z,0.30
2023-02-25T19:05:51.993Z,0.30
2023-02-25T19:08:20.810Z,0.30
2023-02-25T19:10:53.360Z,0.20
2023-02-25T19:13:28.593Z,0.10
2023-02-25T19:15:57.325Z,0.00
2023-02-25T19:18:29.381Z,-0.10
2023-02-25T19:20:57.646Z,-0.20
2023-02-25T19:23:26.595Z,-0.30
2023-02-25T19:25:58.164Z,-0.40
2023-02-25T19:28:28.349Z,-0.50
2023-02-25T19:30:56.820Z,-0.50
2023-02-25T19:33:25.979Z,-0.70
2023-02-25T19:35:54.342Z,-0.70
2023-02-25T19:38:23.017Z,-0.70
2023-02-25T19:40:51.304Z,-0.70
2023-02-25T19:43:19.868Z,-0.90
2023-02-25T19:45:50.584Z,-0.90
2023-02-25T19:48:19.112Z,-1.10
2023-02-25T19:50:47.493Z,-1.20
2023-02-25T19:53:15.821Z,-1.10
2023-02-25T19:55:44.650Z,-1.20
2023-02-25T19:58:13.069Z,-1.10
2023-02-25T20:00:45.980Z,-1.10
2023-02-25T20:03:16.706Z,-1.30
2023-02-25T20:05:45.813Z,-1.20
2023-02-25T20:08:14.271Z,-1.10
2023-02-25T20:10:44.657Z,-1.00
2023-02-25T20:13:13.435Z,-0.90
2023-02-25T20:15:41.710Z,-1.00
2023-02-25T20:18:10.013Z,-1.20
2023-02-25T20:20:56.423Z,-1.10
2023-02-25T20:23:24.895Z,-1.00
2023-02-25T20:26:03.600Z,-1.00
2023-02-25T20:28:32.025Z,-1.10
2023-02-25T20:31:08.369Z,-1.10
2023-02-25T20:33:37.253Z,-1.20
2023-02-25T20:36:20.335Z,-1.30
2023-02-25T20:39:01.232Z,-1.20
2023-02-25T20:41:30.597Z,-1.20
2023-02-25T20:43:59.119Z,-1.20
2023-02-25T20:46:29.482Z,-1.30
2023-02-25T20:48:58.040Z,-1.30
2023-02-25T20:51:28.141Z,-1.30
2023-02-25T20:53:57.295Z,-1.30
2023-02-25T20:56:28.742Z,-1.40
2023-02-25T20:58:57.234Z,-1.40
2023-02-25T21:01:25.599Z,-1.40
2023-02-25T21:03:53.827Z,-1.40
2023-02-25T21:06:24.193Z,-1.50
2023-02-25T21:08:55.163Z,-1.50
2023-02-25T21:11:25.264Z,-1.40
2023-02-25T21:13:54.120Z,-1.40
2023-02-25T21:16:24.424Z,-1.50
2023-02-25T21:18:53.770Z,-1.50
2023-02-25T21:21:25.422Z,-1.60
2023-02-25T21:23:55.576Z,-1.50
2023-02-25T21:26:24.287Z,-1.50
2023-02-25T21:28:52.851Z,-1.60
2023-02-25T21:31:26.133Z,-1.60
2023-02-25T21:33:54.495Z,-1.60
2023-02-25T21:36:23.129Z,-1.70
2023-02-25T21:38:51.535Z,-1.70
2023-02-25T21:41:21.742Z,-1.70
2023-02-25T21:43:50.098Z,-1.70
2023-02-25T21:46:18.467Z,-1.70
2023-02-25T21:48:47.506Z,-1.60
2023-02-25T21:51:18.138Z,-1.50
2023-02-25T21:53:46.388Z,-1.50
2023-02-25T21:56:16.726Z,-1.50
2023-02-25T21:58:46.343Z,-1.50
2023-02-25T22:01:19.746Z,-1.30
2023-02-25T22:03:53.768Z,-1.30
2023-02-25T22:06:24.665Z,-1.30
2023-02-25T22:08:54.545Z,-1.30
2023-02-25T22:11:24.500Z,-1.10
2023-02-25T22:13:57.258Z,-1.00
2023-02-25T22:16:26.441Z,-1.00
2023-02-25T22:18:55.134Z,-1.10
2023-02-25T22:21:24.492Z,-1.10
2023-02-25T22:23:55.185Z,-1.20
2023-02-25T22:26:25.678Z,-1.30
2023-02-25T22:28:57.418Z,-1.20
2023-02-25T22:31:26.568Z,-1.30
2023-02-25T22:33:56.610Z,-1.10
2023-02-25T22:36:27.512Z,-1.00
2023-02-25T22:38:56.655Z,-0.90
2023-02-25T22:41:27.037Z,-1.00
2023-02-25T22:43:58.131Z,-1.00
2023-02-25T22:46:29.265Z,-1.20
2023-02-25T22:48:59.955Z,-1.30
2023-02-25T22:51:30.367Z,-1.30
2023-02-25T22:54:03.152Z,-1.20
2023-02-25T22:56:31.712Z,-1.30
2023-02-25T22:59:01.740Z,-1.20
2023-02-25T23:01:30.160Z,-1.30
2023-02-25T23:03:59.222Z,-1.20
2023-02-25T23:06:42.847Z,-1.20
2023-02-25T23:09:12.781Z,-1.40
2023-02-25T23:11:43.458Z,-1.50
2023-02-25T23:14:14.463Z,-1.40
2023-02-25T23:16:45.733Z,-1.50
2023-02-25T23:19:17.020Z,-1.60
2023-02-25T23:21:47.467Z,-1.60
2023-02-25T23:24:19.658Z,-1.50
2023-02-25T23:26:50.692Z,-1.50
2023-02-25T23:29:20.639Z,-1.30
2023-02-25T23:31:52.633Z,-1.40
2023-02-25T23:34:26.840Z,-1.40
2023-02-25T23:36:57.796Z,-1.40
2023-02-25T23:39:26.866Z,-1.40
2023-02-25T23:41:55.459Z,-1.50
2023-02-25T23:44:28.372Z,-1.40
2023-02-25T23:46:57.132Z,-1.50
2023-02-25T23:49:25.414Z,-1.50
2023-02-25T23:51:54.043Z,-1.40
2023-02-25T23:54:23.352Z,-1.30
2023-02-25T23:56:52.438Z,-1.20
2023-02-25T23:59:27.943Z,-1.20
